American Constellation — WDJ3099 — position and weather

sailwx.info

Track history (hours):
 
Tides and Currents Weather Stations Pressure Air Temp Water Temp Dewpoint Dewpoint Depression Visibility Wind Speed Wind Dir Waves Ship Positions

American Constellation

Owner: American Cruise Lines, Inc., Guilford, CT. More information available from US FCC via Universal Licensing System and Coast Guard Vessel Documentation Center.

Last reported at 2017-Oct-19 02:34 UTC. Time now 2017-Oct-19 13:04 UTC.
Position N 40°56' W 073°54'.

Length 82 m; draft 3 m.

Type: Passenger vessel. MMSI: 367764750.

Date/timePositionNaut miles runAvg speedWind from/ knotsBaromVisibWave heightAir tempDewpointWater temp
2017-Oct-19 02:34N 40°56' W 073°54'0 0.8
2017-Oct-19 02:26N 40°56' W 073°54'  
2017-Oct-14 19:19N 40°55' W 073°55'310.1
2017-Oct-14 19:00N 40°52' W 073°57'5 9.4
2017-Oct-14 18:30N 40°48' W 073°59'4 9.0
2017-Oct-14 18:00N 40°44' W 074°01'2 3.6
2017-Oct-14 17:30N 40°43' W 073°59'0 0.0
2017-Oct-14 17:00N 40°43' W 073°59'0 0.0
2017-Oct-14 16:30N 40°43' W 073°59'0 0.0
2017-Oct-14 15:57N 40°43' W 073°59'0 0.0
2017-Oct-14 15:30N 40°43' W 073°59'0 0.0
2017-Oct-14 15:00N 40°43' W 073°59'0 0.0
2017-Oct-14 14:30N 40°43' W 073°59'0 0.0
2017-Oct-14 14:00N 40°43' W 073°59'0 0.0
2017-Oct-14 13:30N 40°43' W 073°59'0 0.0
2017-Oct-14 12:57N 40°43' W 073°59'0 0.0
2017-Oct-14 12:30N 40°43' W 073°59'0 0.0
2017-Oct-14 12:00N 40°43' W 073°59'0 0.0
2017-Oct-14 11:30N 40°43' W 073°59'0 0.0
2017-Oct-14 11:00N 40°43' W 073°59'0 0.0
2017-Oct-14 10:30N 40°43' W 073°59'0 0.0
2017-Oct-14 10:00N 40°43' W 073°59'0 0.0
2017-Oct-14 09:27N 40°43' W 073°59'0 0.0
2017-Oct-14 08:57N 40°43' W 073°59'0 0.0
2017-Oct-14 08:27N 40°43' W 073°59'0 0.0
2017-Oct-14 08:00N 40°43' W 073°59'0 0.0
2017-Oct-14 07:30N 40°43' W 073°59'0 0.0
2017-Oct-14 07:00N 40°43' W 073°59'0 0.0
2017-Oct-14 06:27N 40°43' W 073°59'0 0.0
2017-Oct-14 06:00N 40°43' W 073°59'0 0.0
2017-Oct-14 05:30N 40°43' W 073°59'0 0.0
2017-Oct-14 05:00N 40°43' W 073°59'0 0.0
2017-Oct-14 04:30N 40°43' W 073°59'0 0.0
2017-Oct-14 04:00N 40°43' W 073°59'0 0.0
2017-Oct-14 03:30N 40°43' W 073°59'0 0.0
2017-Oct-14 02:51N 40°43' W 073°59'0 0.1
2017-Oct-14 02:30N 40°43' W 073°59'0 0.0
2017-Oct-14 02:00N 40°43' W 073°59'0 0.0
2017-Oct-14 01:30N 40°43' W 073°59'0 0.0
2017-Oct-14 01:00N 40°43' W 073°59'0 0.0
2017-Oct-14 00:30N 40°43' W 073°59'0 0.0
2017-Oct-14 00:00N 40°43' W 073°59'0 0.0
2017-Oct-13 23:30N 40°43' W 073°59'0 0.0
2017-Oct-13 23:00N 40°43' W 073°59'0 0.0
2017-Oct-13 22:27N 40°43' W 073°59'0 0.0
2017-Oct-13 21:57N 40°43' W 073°59'0 0.0
2017-Oct-13 21:30N 40°43' W 073°59'0 0.0
2017-Oct-13 21:00N 40°43' W 073°59'0 0.0
2017-Oct-13 20:30N 40°43' W 073°59'0 0.0
2017-Oct-13 20:00N 40°43' W 073°59'0 0.0
2017-Oct-13 19:30N 40°43' W 073°59'0 0.0
2017-Oct-13 19:00N 40°43' W 073°59'0 0.0
2017-Oct-13 18:30N 40°43' W 073°59'0 0.0
2017-Oct-13 17:59N 40°43' W 073°59'0 0.0
2017-Oct-13 17:30N 40°43' W 073°59'0 0.0
2017-Oct-13 17:00N 40°43' W 073°59'0 0.0
2017-Oct-13 16:30N 40°43' W 073°59'0 0.0
2017-Oct-13 16:00N 40°43' W 073°59'0 0.0
2017-Oct-13 15:30N 40°43' W 073°59'0 0.0
2017-Oct-13 15:00N 40°43' W 073°59'0 0.0
2017-Oct-13 14:30N 40°43' W 073°59'0 0.3
2017-Oct-13 14:00N 40°42' W 073°59'3 5.2
2017-Oct-13 13:30N 40°41' W 074°02'1 2.4
2017-Oct-13 13:00N 40°42' W 074°02'4 7.1
2017-Oct-13 12:30N 40°45' W 074°01'4 7.9
2017-Oct-13 12:00N 40°49' W 073°59'5 8.9
2017-Oct-13 11:30N 40°53' W 073°56'4 0.1
2017-Oct-12 01:46N 40°56' W 073°54'0 0.7
2017-Oct-12 01:30N 40°56' W 073°55'  
Track history (hours):
 
Tides and Currents Weather Stations Pressure Air Temp Water Temp Dewpoint Dewpoint Depression Visibility Wind Speed Wind Dir Waves Ship Positions

American Constellation

Owner: American Cruise Lines, Inc., Guilford, CT. More information available from US FCC via Universal Licensing System and Coast Guard Vessel Documentation Center.

Last reported at 2017-Oct-19 02:34 UTC. Time now 2017-Oct-19 13:04 UTC.
Position N 40°56' W 073°54'.

Length 82 m; draft 3 m.

Type: Passenger vessel. MMSI: 367764750.

Date/timePositionNaut miles runAvg speedWind from/ knotsBaromVisibWave heightAir tempDewpointWater temp
2017-Oct-19 02:34N 40°56' W 073°54'0 0.8
2017-Oct-19 02:26N 40°56' W 073°54'  
2017-Oct-14 19:19N 40°55' W 073°55'310.1
2017-Oct-14 19:00N 40°52' W 073°57'5 9.4
2017-Oct-14 18:30N 40°48' W 073°59'4 9.0
2017-Oct-14 18:00N 40°44' W 074°01'2 3.6
2017-Oct-14 17:30N 40°43' W 073°59'0 0.0
2017-Oct-14 17:00N 40°43' W 073°59'0 0.0
2017-Oct-14 16:30N 40°43' W 073°59'0 0.0
2017-Oct-14 15:57N 40°43' W 073°59'0 0.0
2017-Oct-14 15:30N 40°43' W 073°59'0 0.0
2017-Oct-14 15:00N 40°43' W 073°59'0 0.0
2017-Oct-14 14:30N 40°43' W 073°59'0 0.0
2017-Oct-14 14:00N 40°43' W 073°59'0 0.0
2017-Oct-14 13:30N 40°43' W 073°59'0 0.0
2017-Oct-14 12:57N 40°43' W 073°59'0 0.0
2017-Oct-14 12:30N 40°43' W 073°59'0 0.0
2017-Oct-14 12:00N 40°43' W 073°59'0 0.0
2017-Oct-14 11:30N 40°43' W 073°59'0 0.0
2017-Oct-14 11:00N 40°43' W 073°59'0 0.0
2017-Oct-14 10:30N 40°43' W 073°59'0 0.0
2017-Oct-14 10:00N 40°43' W 073°59'0 0.0
2017-Oct-14 09:27N 40°43' W 073°59'0 0.0
2017-Oct-14 08:57N 40°43' W 073°59'0 0.0
2017-Oct-14 08:27N 40°43' W 073°59'0 0.0
2017-Oct-14 08:00N 40°43' W 073°59'0 0.0
2017-Oct-14 07:30N 40°43' W 073°59'0 0.0
2017-Oct-14 07:00N 40°43' W 073°59'0 0.0
2017-Oct-14 06:27N 40°43' W 073°59'0 0.0
2017-Oct-14 06:00N 40°43' W 073°59'0 0.0
2017-Oct-14 05:30N 40°43' W 073°59'0 0.0
2017-Oct-14 05:00N 40°43' W 073°59'0 0.0
2017-Oct-14 04:30N 40°43' W 073°59'0 0.0
2017-Oct-14 04:00N 40°43' W 073°59'0 0.0
2017-Oct-14 03:30N 40°43' W 073°59'0 0.0
2017-Oct-14 02:51N 40°43' W 073°59'0 0.1
2017-Oct-14 02:30N 40°43' W 073°59'0 0.0
2017-Oct-14 02:00N 40°43' W 073°59'0 0.0
2017-Oct-14 01:30N 40°43' W 073°59'0 0.0
2017-Oct-14 01:00N 40°43' W 073°59'0 0.0
2017-Oct-14 00:30N 40°43' W 073°59'0 0.0
2017-Oct-14 00:00N 40°43' W 073°59'0 0.0
2017-Oct-13 23:30N 40°43' W 073°59'0 0.0
2017-Oct-13 23:00N 40°43' W 073°59'0 0.0
2017-Oct-13 22:27N 40°43' W 073°59'0 0.0
2017-Oct-13 21:57N 40°43' W 073°59'0 0.0
2017-Oct-13 21:30N 40°43' W 073°59'0 0.0
2017-Oct-13 21:00N 40°43' W 073°59'0 0.0
2017-Oct-13 20:30N 40°43' W 073°59'0 0.0
2017-Oct-13 20:00N 40°43' W 073°59'0 0.0
2017-Oct-13 19:30N 40°43' W 073°59'0 0.0
2017-Oct-13 19:00N 40°43' W 073°59'0 0.0
2017-Oct-13 18:30N 40°43' W 073°59'0 0.0
2017-Oct-13 17:59N 40°43' W 073°59'0 0.0
2017-Oct-13 17:30N 40°43' W 073°59'0 0.0
2017-Oct-13 17:00N 40°43' W 073°59'0 0.0
2017-Oct-13 16:30N 40°43' W 073°59'0 0.0
2017-Oct-13 16:00N 40°43' W 073°59'0 0.0
2017-Oct-13 15:30N 40°43' W 073°59'0 0.0
2017-Oct-13 15:00N 40°43' W 073°59'0 0.0
2017-Oct-13 14:30N 40°43' W 073°59'0 0.3
2017-Oct-13 14:00N 40°42' W 073°59'3 5.2
2017-Oct-13 13:30N 40°41' W 074°02'1 2.4
2017-Oct-13 13:00N 40°42' W 074°02'4 7.1
2017-Oct-13 12:30N 40°45' W 074°01'4 7.9
2017-Oct-13 12:00N 40°49' W 073°59'5 8.9
2017-Oct-13 11:30N 40°53' W 073°56'4 0.1
2017-Oct-12 01:46N 40°56' W 073°54'0 0.7
2017-Oct-12 01:30N 40°56' W 073°55'  

Dump ship's entire track history